If you wish to contribute or participate in the discussions about articles you are invited to join SKYbrary as a registered user

 Actions

Lanseria Airport

From SKYbrary Wiki

FALA
Airport
ICAO: FALA – IATA: HLA
Summary
Name Lanseria Airport
Region Africa
Territory South Africa ZA.gif
Location , Gauteng
Serving Johannesburg
Elevation 1,376.782 m
4,517 ft
4,517 ft1,376.782 m
Coordinates 25° 56' 18.65" S, 27° 55' 34.08" E
Runways
Designator Length Width Surface ROPS
06L/24R 3048 m10,000 ft
23 m75.459 ft
ASP yes/yes
06R/24L 1760 m5,774.278 ft
15 m49.213 ft
ASP no/no


METAR
Observation FALA 131800Z VRB02KT 9999 FEW045 28/06 Q1021 NOSIG
Station Lanseria
Date/Time 13 October 2019 18:00:00
Wind direction °
Wind speed 02 kts
Lowest cloud amount few clouds
Temperature 28°C
Dew point 6°C
Humidity 24%
QNH 1021 hPa
Weather condition n/a